createdAt,value
2019-05-11T00:00:37.696Z,7.55
2019-05-11T00:02:43.209Z,14.65
2019-05-11T00:04:48.822Z,15.30
2019-05-11T00:06:54.441Z,13.50
2019-05-11T00:09:00.044Z,16.85
2019-05-11T00:11:05.645Z,18.37
2019-05-11T00:13:11.216Z,17.80
2019-05-11T00:15:16.880Z,17.42
2019-05-11T00:17:22.473Z,16.27
2019-05-11T00:19:28.003Z,17.60
2019-05-11T00:21:33.516Z,18.17
2019-05-11T00:23:39.048Z,17.17
2019-05-11T00:26:04.094Z,19.07
2019-05-11T00:28:09.670Z,16.95
2019-05-11T00:30:15.378Z,16.57
2019-05-11T00:32:22.860Z,15.72
2019-05-11T00:34:28.136Z,16.35
2019-05-11T00:36:33.682Z,20.40
2019-05-11T00:38:39.332Z,20.32
2019-05-11T00:40:45.028Z,24.02
2019-05-11T00:42:50.576Z,23.83
2019-05-11T00:44:56.046Z,21.00
2019-05-11T00:47:13.804Z,20.72
2019-05-11T00:49:20.154Z,22.35
2019-05-11T00:51:25.685Z,22.85
2019-05-11T00:53:31.247Z,25.52
2019-05-11T00:55:36.919Z,24.65
2019-05-11T00:57:42.466Z,25.25
2019-05-11T00:59:48.008Z,24.43
2019-05-11T01:01:53.653Z,24.95
2019-05-11T01:03:59.192Z,23.83
2019-05-11T01:06:04.809Z,24.60
2019-05-11T01:08:10.312Z,26.42
2019-05-11T01:10:28.768Z,27.52
2019-05-11T01:12:23.170Z,30.15
2019-05-11T01:14:28.725Z,28.42
2019-05-11T01:16:34.313Z,27.48
2019-05-11T01:18:39.830Z,26.07
2019-05-11T01:20:45.464Z,23.60
2019-05-11T01:22:50.993Z,22.65
2019-05-11T01:24:56.515Z,21.25
2019-05-11T01:27:02.107Z,20.32
2019-05-11T01:29:07.652Z,21.25
2019-05-11T01:31:13.193Z,22.00
2019-05-11T01:33:18.758Z,22.15
2019-05-11T01:35:24.348Z,20.10
2019-05-11T01:37:29.916Z,19.77
2019-05-11T01:39:35.622Z,18.17
2019-05-11T01:41:41.155Z,17.90
2019-05-11T01:43:46.762Z,17.67
2019-05-11T01:45:52.324Z,18.00
2019-05-11T01:47:57.844Z,17.82
2019-05-11T01:50:03.459Z,19.52
2019-05-11T01:52:09.046Z,18.67
2019-05-11T01:54:14.593Z,18.10
2019-05-11T01:56:20.128Z,19.50
2019-05-11T01:58:25.654Z,18.98
2019-05-11T02:00:31.195Z,18.12
2019-05-11T02:02:36.739Z,18.12
2019-05-11T02:04:42.297Z,18.45
2019-05-11T02:06:47.830Z,20.62
2019-05-11T02:08:53.436Z,19.02
2019-05-11T02:11:14.850Z,19.37
2019-05-11T02:13:06.165Z,20.65
2019-05-11T02:15:11.908Z,20.60
2019-05-11T02:17:17.424Z,21.93
2019-05-11T02:19:23.091Z,20.15
2019-05-11T02:21:28.947Z,21.25
2019-05-11T02:23:34.477Z,23.05
2019-05-11T02:25:40.025Z,22.55
2019-05-11T02:27:45.540Z,22.20
2019-05-11T02:29:52.124Z,21.75
2019-05-11T02:31:57.662Z,21.40
2019-05-11T02:34:03.270Z,22.55
2019-05-11T02:36:08.860Z,22.95
2019-05-11T02:38:14.400Z,24.10
2019-05-11T02:40:20.600Z,24.65
2019-05-11T02:42:26.272Z,22.45
2019-05-11T02:44:31.833Z,22.95
2019-05-11T02:46:37.389Z,23.27
2019-05-11T02:48:42.943Z,23.80
2019-05-11T02:50:50.432Z,23.12
2019-05-11T02:52:56.073Z,23.92
2019-05-11T02:55:08.577Z,24.82
2019-05-11T02:57:14.136Z,24.85
2019-05-11T02:59:19.657Z,26.05
2019-05-11T03:01:25.197Z,25.82
2019-05-11T03:03:30.769Z,24.60
2019-05-11T03:05:36.438Z,26.60
2019-05-11T03:07:41.961Z,25.97
2019-05-11T03:09:47.515Z,27.80
2019-05-11T03:11:55.993Z,28.00
2019-05-11T03:14:01.444Z,26.23
2019-05-11T03:16:07.140Z,26.10
2019-05-11T03:18:12.640Z,24.92
2019-05-11T03:20:18.320Z,25.35
2019-05-11T03:22:24.958Z,24.52
2019-05-11T03:24:30.501Z,25.75
2019-05-11T03:26:36.055Z,26.95
2019-05-11T03:28:41.614Z,25.55
2019-05-11T03:30:47.160Z,25.77
2019-05-11T03:32:52.723Z,25.57
2019-05-11T03:34:58.289Z,25.10
2019-05-11T03:37:03.844Z,26.73
2019-05-11T03:39:09.375Z,23.65
2019-05-11T03:41:14.932Z,22.20
2019-05-11T03:43:20.460Z,24.67
2019-05-11T03:45:26.004Z,23.83
2019-05-11T03:47:31.561Z,24.02
2019-05-11T03:49:37.097Z,21.23
2019-05-11T03:51:42.730Z,21.15
2019-05-11T03:53:48.323Z,23.22
2019-05-11T03:55:53.830Z,21.68
2019-05-11T03:57:59.354Z,22.37
2019-05-11T04:00:07.033Z,23.12
2019-05-11T04:02:12.574Z,22.77
2019-05-11T04:04:18.097Z,22.98
2019-05-11T04:06:23.665Z,22.07
2019-05-11T04:08:29.211Z,25.00
2019-05-11T04:10:34.716Z,24.37
2019-05-11T04:12:46.066Z,25.50
2019-05-11T04:14:51.598Z,25.68
2019-05-11T04:16:57.144Z,24.27
2019-05-11T04:19:02.740Z,25.30
2019-05-11T04:21:08.269Z,24.75
2019-05-11T04:23:13.915Z,28.60
2019-05-11T04:25:20.625Z,30.82
2019-05-11T04:27:26.157Z,28.85
2019-05-11T04:29:31.694Z,34.48
2019-05-11T04:31:37.336Z,38.85
2019-05-11T04:33:42.861Z,41.90
2019-05-11T04:35:48.365Z,40.40
2019-05-11T04:37:53.931Z,47.00
2019-05-11T04:39:59.475Z,61.63
2019-05-11T04:42:08.589Z,60.70
2019-05-11T04:44:14.137Z,50.88
2019-05-11T04:46:19.626Z,36.53
2019-05-11T04:48:25.157Z,35.92
2019-05-11T04:50:30.698Z,35.83
2019-05-11T04:52:36.216Z,35.20
2019-05-11T04:54:41.825Z,37.08
2019-05-11T04:56:47.345Z,36.28
2019-05-11T04:58:52.905Z,33.67
2019-05-11T05:00:58.417Z,35.03
2019-05-11T05:03:04.026Z,33.18
2019-05-11T05:05:09.697Z,34.35
2019-05-11T05:07:16.684Z,34.60
2019-05-11T05:09:22.659Z,33.33
2019-05-11T05:11:30.712Z,33.02
2019-05-11T05:13:35.361Z,33.35
2019-05-11T05:15:40.892Z,34.15
2019-05-11T05:17:46.416Z,30.65
2019-05-11T05:19:51.969Z,32.50
2019-05-11T05:21:57.543Z,38.67
2019-05-11T05:24:03.091Z,36.17
2019-05-11T05:26:09.678Z,39.08
2019-05-11T05:28:15.237Z,41.08
2019-05-11T05:30:20.913Z,37.85
2019-05-11T05:32:26.433Z,40.92
2019-05-11T05:34:31.965Z,37.63
2019-05-11T05:36:37.508Z,37.83
2019-05-11T05:38:43.034Z,33.60
2019-05-11T05:40:48.576Z,34.38
2019-05-11T05:42:54.113Z,31.75
2019-05-11T05:44:59.664Z,29.05
2019-05-11T05:47:05.194Z,29.32
2019-05-11T05:49:10.713Z,28.25
2019-05-11T05:51:16.240Z,27.90
2019-05-11T05:53:21.799Z,28.27
2019-05-11T05:55:27.314Z,30.95
2019-05-11T05:57:32.863Z,30.20
2019-05-11T05:59:39.417Z,31.00
2019-05-11T06:01:44.953Z,31.68
2019-05-11T06:03:50.493Z,28.73
2019-05-11T06:05:56.033Z,28.47
2019-05-11T06:08:01.633Z,28.10
2019-05-11T06:10:08.016Z,30.35
2019-05-11T06:12:13.560Z,27.87
2019-05-11T06:14:19.094Z,28.75
2019-05-11T06:16:24.621Z,24.07
2019-05-11T06:18:30.180Z,24.07
2019-05-11T06:20:35.709Z,25.68
2019-05-11T06:22:41.233Z,22.48
2019-05-11T06:24:46.777Z,21.17
2019-05-11T06:26:52.290Z,20.77
2019-05-11T06:28:59.000Z,20.72
2019-05-11T06:31:05.639Z,18.25
2019-05-11T06:33:11.178Z,20.15
2019-05-11T06:35:16.870Z,292.27
2019-05-11T06:37:22.380Z,26.12
2019-05-11T06:39:27.933Z,19.48
2019-05-11T06:41:33.452Z,17.25
2019-05-11T06:43:39.068Z,20.82
2019-05-11T06:45:44.609Z,17.50
2019-05-11T06:47:50.281Z,15.58
2019-05-11T06:49:55.765Z,14.30
2019-05-11T06:52:01.290Z,15.90
2019-05-11T06:54:06.896Z,17.07
2019-05-11T06:56:12.417Z,13.38
2019-05-11T06:58:17.945Z,14.10
2019-05-11T07:00:23.731Z,15.85
2019-05-11T07:02:29.253Z,16.32
2019-05-11T07:04:34.773Z,17.27
2019-05-11T07:06:40.315Z,16.52
2019-05-11T07:08:45.856Z,15.30
2019-05-11T07:10:51.377Z,13.68
2019-05-11T07:12:56.929Z,14.00
2019-05-11T07:15:02.428Z,12.75
2019-05-11T07:17:09.116Z,13.70
2019-05-11T07:19:14.671Z,15.80
2019-05-11T07:21:20.215Z,15.48
2019-05-11T07:23:25.757Z,42.25
2019-05-11T07:25:31.300Z,27.35
2019-05-11T07:27:36.945Z,16.30
2019-05-11T07:29:42.484Z,14.87
2019-05-11T07:31:48.101Z,13.32
2019-05-11T07:33:53.621Z,14.20
2019-05-11T07:35:59.213Z,12.45
2019-05-11T07:38:04.813Z,26.05
2019-05-11T07:40:10.793Z,19.42
2019-05-11T07:42:18.041Z,11.63
2019-05-11T07:44:35.820Z,17.92
2019-05-11T07:46:30.988Z,15.15
2019-05-11T07:48:38.571Z,9.38
2019-05-11T07:50:43.953Z,8.38
2019-05-11T07:52:49.488Z,10.43
2019-05-11T07:54:55.031Z,8.40
2019-05-11T07:57:00.568Z,7.00
2019-05-11T07:59:08.004Z,6.33
2019-05-11T08:01:13.279Z,5.78
2019-05-11T08:03:18.785Z,7.30
2019-05-11T08:05:24.303Z,4.08
2019-05-11T08:07:29.844Z,4.08
2019-05-11T08:09:37.746Z,4.65
2019-05-11T08:11:42.515Z,4.60
2019-05-11T08:13:48.273Z,5.50
2019-05-11T08:15:53.927Z,6.45
2019-05-11T08:17:59.445Z,5.65
2019-05-11T08:20:08.415Z,6.50
2019-05-11T08:22:13.927Z,3.70
2019-05-11T08:24:20.531Z,5.62
2019-05-11T08:26:28.334Z,3.90
2019-05-11T08:28:33.350Z,4.37
2019-05-11T08:30:38.853Z,3.77
2019-05-11T08:32:44.419Z,4.70
2019-05-11T08:34:49.966Z,3.80
2019-05-11T08:36:55.529Z,3.85
2019-05-11T08:39:01.044Z,3.27
2019-05-11T08:41:08.073Z,3.00
2019-05-11T08:43:13.697Z,3.72
2019-05-11T08:45:24.011Z,4.35
2019-05-11T08:47:28.337Z,4.28
2019-05-11T08:49:33.647Z,4.12
2019-05-11T08:51:39.199Z,4.53
2019-05-11T08:53:44.684Z,4.47
2019-05-11T08:55:50.197Z,4.42
2019-05-11T08:57:55.713Z,4.17
2019-05-11T09:00:01.215Z,3.83
2019-05-11T09:02:08.191Z,4.37
2019-05-11T09:04:14.056Z,3.58
2019-05-11T09:06:19.655Z,3.92
2019-05-11T09:08:25.307Z,4.25
2019-05-11T09:10:30.866Z,3.75
2019-05-11T09:12:38.215Z,3.55
2019-05-11T09:14:43.521Z,3.52
2019-05-11T09:16:49.117Z,3.35
2019-05-11T09:18:57.977Z,3.25
2019-05-11T09:21:02.853Z,3.20
2019-05-11T09:23:08.488Z,2.72
2019-05-11T09:25:14.129Z,3.33
2019-05-11T09:27:19.719Z,3.62
2019-05-11T09:29:25.276Z,3.50
2019-05-11T09:31:30.776Z,3.33
2019-05-11T09:33:38.393Z,2.50
2019-05-11T09:35:49.823Z,3.30
2019-05-11T09:37:50.666Z,2.62
2019-05-11T09:39:58.197Z,2.40
2019-05-11T09:42:03.407Z,2.65
2019-05-11T09:44:09.172Z,3.12
2019-05-11T09:46:14.775Z,2.95
2019-05-11T09:48:20.377Z,2.58
2019-05-11T09:50:27.748Z,2.70
2019-05-11T09:52:33.238Z,3.42
2019-05-11T09:54:39.882Z,2.58
2019-05-11T09:56:45.419Z,2.83
2019-05-11T09:58:50.944Z,3.22
2019-05-11T10:00:58.643Z,3.20
2019-05-11T10:03:03.849Z,3.65
2019-05-11T10:05:09.706Z,3.65
2019-05-11T10:07:15.380Z,3.10
2019-05-11T10:09:20.917Z,3.12
2019-05-11T10:11:28.209Z,8.28
2019-05-11T10:13:33.932Z,31.57
2019-05-11T10:15:39.593Z,12.28
2019-05-11T10:17:45.168Z,2.90
2019-05-11T10:19:50.732Z,2.98
2019-05-11T10:21:58.089Z,2.83
2019-05-11T10:24:03.440Z,2.95
2019-05-11T10:26:09.004Z,2.98
2019-05-11T10:28:17.734Z,2.83
2019-05-11T10:30:22.679Z,2.42
2019-05-11T10:32:28.866Z,2.70
2019-05-11T10:34:34.654Z,2.50
2019-05-11T10:36:40.224Z,2.67
2019-05-11T10:38:45.768Z,2.62
2019-05-11T10:40:51.296Z,2.33
2019-05-11T10:42:58.950Z,1.65
2019-05-11T10:45:09.116Z,1.60
2019-05-11T10:47:14.089Z,2.77
2019-05-11T10:49:19.645Z,2.30
2019-05-11T10:51:25.223Z,2.25
2019-05-11T10:53:30.754Z,2.08
2019-05-11T10:55:38.732Z,1.60
2019-05-11T10:57:44.441Z,2.20
2019-05-11T10:59:49.957Z,2.02
2019-05-11T11:01:55.556Z,1.92
2019-05-11T11:04:01.172Z,2.50
2019-05-11T11:06:08.511Z,2.37
2019-05-11T11:08:14.077Z,2.17
2019-05-11T11:10:19.951Z,2.58
2019-05-11T11:12:27.769Z,2.25
2019-05-11T11:14:32.824Z,2.05
2019-05-11T11:16:42.038Z,2.42
2019-05-11T11:18:45.564Z,2.40
2019-05-11T11:20:51.125Z,2.10
2019-05-11T11:22:58.397Z,2.30
2019-05-11T11:25:04.750Z,2.27
2019-05-11T11:27:10.924Z,1.95
2019-05-11T11:29:17.920Z,2.27
2019-05-11T11:31:23.705Z,2.10
2019-05-11T11:33:29.249Z,1.42
2019-05-11T11:35:34.797Z,2.40
2019-05-11T11:37:40.417Z,2.62
2019-05-11T11:39:47.653Z,2.27
2019-05-11T11:41:53.117Z,2.40
2019-05-11T11:43:58.724Z,2.33
2019-05-11T11:46:04.257Z,2.12
2019-05-11T11:48:09.856Z,2.22
2019-05-11T11:50:17.633Z,2.30
2019-05-11T11:52:22.691Z,2.05
2019-05-11T11:54:28.734Z,2.08
2019-05-11T11:56:34.550Z,1.90
2019-05-11T11:58:40.039Z,2.02
2019-05-11T12:00:48.056Z,1.85
2019-05-11T12:02:52.835Z,2.33
2019-05-11T12:04:58.427Z,2.20
2019-05-11T12:07:03.945Z,2.27
2019-05-11T12:09:09.576Z,2.20
2019-05-11T12:11:15.164Z,2.65
2019-05-11T12:13:20.765Z,2.85
2019-05-11T12:15:28.335Z,2.77
2019-05-11T12:17:33.608Z,2.87
2019-05-11T12:19:39.154Z,2.67
2019-05-11T12:21:44.725Z,2.58
2019-05-11T12:23:50.264Z,2.80
2019-05-11T12:25:57.892Z,2.15
2019-05-11T12:28:02.919Z,2.17
2019-05-11T12:30:09.910Z,1.90
2019-05-11T12:32:18.513Z,2.58
2019-05-11T12:34:24.176Z,1.30
2019-05-11T12:36:29.736Z,1.15
2019-05-11T12:38:35.261Z,1.37
2019-05-11T12:40:40.884Z,1.40
2019-05-11T12:42:48.673Z,1.47
2019-05-11T12:44:53.568Z,1.45
2019-05-11T12:46:59.087Z,1.40
2019-05-11T12:49:04.752Z,1.50
2019-05-11T12:51:10.379Z,1.32
2019-05-11T12:53:15.915Z,1.70
2019-05-11T12:55:21.617Z,1.80
2019-05-11T12:57:28.162Z,1.50
2019-05-11T12:59:33.875Z,2.05
2019-05-11T13:01:39.470Z,1.60
2019-05-11T13:03:45.016Z,1.50
2019-05-11T13:05:50.587Z,1.95
2019-05-11T13:07:58.412Z,1.72
2019-05-11T13:10:04.078Z,1.60
2019-05-11T13:12:09.747Z,2.12
2019-05-11T13:14:15.293Z,1.50
2019-05-11T13:16:20.791Z,1.50
2019-05-11T13:18:27.916Z,1.30
2019-05-11T13:20:33.726Z,1.27
2019-05-11T13:22:39.280Z,4.67
2019-05-11T13:24:44.831Z,6.28
2019-05-11T13:26:50.389Z,4.95
2019-05-11T13:28:58.264Z,14.73
2019-05-11T13:31:03.092Z,3.62
2019-05-11T13:33:08.810Z,1.65
2019-05-11T13:35:17.790Z,3.62
2019-05-11T13:37:22.746Z,7.40
2019-05-11T13:39:28.611Z,8.35
2019-05-11T13:41:38.351Z,1.72
2019-05-11T13:43:44.056Z,1.82
2019-05-11T13:45:49.602Z,2.00
2019-05-11T13:47:58.460Z,4.62
2019-05-11T13:50:02.433Z,1.98
2019-05-11T13:52:08.598Z,1.27
2019-05-11T13:54:18.244Z,1.52
2019-05-11T13:56:23.057Z,2.10
2019-05-11T13:58:28.663Z,1.82
2019-05-11T14:00:34.169Z,2.08
2019-05-11T14:02:39.763Z,1.80
2019-05-11T14:04:45.373Z,2.05
2019-05-11T14:06:50.877Z,1.60
2019-05-11T14:08:58.225Z,1.92
2019-05-11T14:11:03.652Z,2.10
2019-05-11T14:13:09.205Z,2.20
2019-05-11T14:15:15.365Z,2.27
2019-05-11T14:17:20.980Z,2.40
2019-05-11T14:19:29.051Z,1.70
2019-05-11T14:21:35.400Z,2.12
2019-05-11T14:23:41.206Z,1.75
2019-05-11T14:25:48.620Z,2.45
2019-05-11T14:27:53.960Z,1.90
2019-05-11T14:29:59.546Z,2.47
2019-05-11T14:32:05.087Z,2.30
2019-05-11T14:34:10.614Z,1.95
2019-05-11T14:36:18.422Z,1.77
2019-05-11T14:38:23.357Z,1.90
2019-05-11T14:40:28.937Z,1.50
2019-05-11T14:42:34.500Z,1.30
2019-05-11T14:44:40.024Z,1.57
2019-05-11T14:46:47.678Z,1.55
2019-05-11T14:48:52.934Z,1.72
2019-05-11T14:50:59.340Z,1.40
2019-05-11T14:53:05.005Z,1.75
2019-05-11T14:55:10.684Z,2.25
2019-05-11T14:57:18.436Z,3.20
2019-05-11T14:59:23.384Z,1.98
2019-05-11T15:01:29.001Z,2.12
2019-05-11T15:03:37.857Z,2.17
2019-05-11T15:05:42.728Z,2.10
2019-05-11T15:07:52.027Z,2.80
2019-05-11T15:09:55.520Z,2.40
2019-05-11T15:12:01.073Z,1.87
2019-05-11T15:14:08.161Z,2.08
2019-05-11T15:16:13.958Z,2.02
2019-05-11T15:18:19.489Z,1.70
2019-05-11T15:20:25.052Z,1.70
2019-05-11T15:22:30.608Z,1.70
2019-05-11T15:24:38.364Z,1.60
2019-05-11T15:26:43.407Z,1.70
2019-05-11T15:28:48.934Z,1.87
2019-05-11T15:30:54.543Z,1.85
2019-05-11T15:33:07.747Z,2.00
2019-05-11T15:35:13.818Z,2.80
2019-05-11T15:37:19.344Z,2.25
2019-05-11T15:39:24.874Z,1.85
2019-05-11T15:41:31.367Z,2.35
2019-05-11T15:43:38.729Z,2.58
2019-05-11T15:45:44.127Z,3.98
2019-05-11T15:47:49.738Z,3.12
2019-05-11T15:49:57.777Z,3.50
2019-05-11T15:52:02.476Z,2.90
2019-05-11T15:54:08.160Z,3.47
2019-05-11T15:56:13.749Z,3.45
2019-05-11T15:58:21.773Z,2.72
2019-05-11T16:00:26.621Z,4.17
2019-05-11T16:02:32.163Z,3.37
2019-05-11T16:04:38.168Z,3.90
2019-05-11T16:06:44.874Z,3.33
2019-05-11T16:08:50.401Z,3.27
2019-05-11T16:10:57.774Z,2.90
2019-05-11T16:13:03.205Z,3.77
2019-05-11T16:15:10.778Z,3.85
2019-05-11T16:17:16.370Z,4.40
2019-05-11T16:19:21.905Z,4.62
2019-05-11T16:21:28.587Z,5.28
2019-05-11T16:23:34.746Z,4.72
2019-05-11T16:25:41.010Z,5.62
2019-05-11T16:27:46.828Z,4.50
2019-05-11T16:29:52.436Z,4.67
2019-05-11T16:31:58.058Z,7.40
2019-05-11T16:34:03.725Z,5.08
2019-05-11T16:36:09.407Z,6.42
2019-05-11T16:38:15.025Z,5.37
2019-05-11T16:40:21.204Z,4.90
2019-05-11T16:42:27.693Z,6.42
2019-05-11T16:44:34.682Z,7.20
2019-05-11T16:46:40.688Z,6.90
2019-05-11T16:48:46.317Z,7.62
2019-05-11T16:50:51.867Z,11.08
2019-05-11T16:52:58.516Z,7.05
2019-05-11T16:55:07.897Z,6.53
2019-05-11T16:57:13.552Z,7.90
2019-05-11T16:59:19.080Z,9.30
2019-05-11T17:01:24.641Z,9.98
2019-05-11T17:03:30.144Z,8.65
2019-05-11T17:05:38.099Z,9.35
2019-05-11T17:07:42.975Z,8.03
2019-05-11T17:09:48.596Z,7.30
2019-05-11T17:11:54.135Z,7.85
2019-05-11T17:13:59.721Z,7.50
2019-05-11T17:16:05.290Z,7.35
2019-05-11T17:18:10.800Z,7.00
2019-05-11T17:20:18.700Z,6.62
2019-05-11T17:22:24.986Z,7.80
2019-05-11T17:24:30.719Z,6.55
2019-05-11T17:26:38.449Z,6.90
2019-05-11T17:28:43.524Z,6.00
2019-05-11T17:30:49.072Z,6.90
2019-05-11T17:32:54.589Z,6.78
2019-05-11T17:35:00.144Z,7.62
2019-05-11T17:37:05.685Z,8.30
2019-05-11T17:39:11.201Z,8.33
2019-05-11T17:41:16.791Z,9.40
2019-05-11T17:43:22.316Z,10.25
2019-05-11T17:45:29.084Z,11.30
2019-05-11T17:47:34.683Z,12.78
2019-05-11T17:49:40.233Z,12.10
2019-05-11T17:51:45.756Z,11.85
2019-05-11T17:53:51.318Z,14.55
2019-05-11T17:55:58.050Z,12.47
2019-05-11T17:58:03.866Z,14.23
2019-05-11T18:00:10.343Z,14.73
2019-05-11T18:02:18.083Z,15.60
2019-05-11T18:04:23.133Z,15.00
2019-05-11T18:06:28.668Z,15.68
2019-05-11T18:08:34.186Z,15.98
2019-05-11T18:10:39.760Z,15.18
2019-05-11T18:12:45.349Z,15.13
2019-05-11T18:14:50.895Z,13.95
2019-05-11T18:16:58.941Z,14.80
2019-05-11T18:19:03.776Z,12.98
2019-05-11T18:21:09.399Z,13.98
2019-05-11T18:23:14.927Z,13.90
2019-05-11T18:25:20.663Z,14.18
2019-05-11T18:27:27.861Z,14.25
2019-05-11T18:29:33.485Z,13.80
2019-05-11T18:31:39.137Z,16.77
2019-05-11T18:33:45.668Z,15.32
2019-05-11T18:35:52.047Z,15.48
2019-05-11T18:37:57.710Z,16.87
2019-05-11T18:40:04.757Z,18.25
2019-05-11T18:42:10.324Z,19.00
2019-05-11T18:44:15.875Z,18.35
2019-05-11T18:46:21.447Z,18.85
2019-05-11T18:48:28.981Z,16.55
2019-05-11T18:50:35.028Z,17.67
2019-05-11T18:52:40.553Z,18.45
2019-05-11T18:54:47.836Z,20.37
2019-05-11T18:56:53.378Z,21.55
2019-05-11T18:58:58.929Z,20.08
2019-05-11T19:01:04.464Z,22.17
2019-05-11T19:03:10.116Z,21.97
2019-05-11T19:05:17.807Z,22.55
2019-05-11T19:07:23.936Z,22.05
2019-05-11T19:09:29.571Z,23.05
2019-05-11T19:11:35.169Z,21.90
2019-05-11T19:13:40.762Z,22.00
2019-05-11T19:15:50.122Z,21.95
2019-05-11T19:17:57.936Z,21.27
2019-05-11T19:20:03.334Z,23.20
2019-05-11T19:22:09.192Z,21.70
2019-05-11T19:24:14.700Z,19.17
2019-05-11T19:26:20.881Z,19.90
2019-05-11T19:28:28.071Z,21.70
2019-05-11T19:30:33.902Z,22.13
2019-05-11T19:32:39.558Z,21.40
2019-05-11T19:34:47.670Z,22.55
2019-05-11T19:36:52.625Z,22.55
2019-05-11T19:38:58.443Z,22.48
2019-05-11T19:41:04.076Z,22.40
2019-05-11T19:43:09.690Z,23.57
2019-05-11T19:45:15.311Z,25.00
2019-05-11T19:47:20.900Z,26.23
2019-05-11T19:49:27.883Z,27.30
2019-05-11T19:51:33.576Z,29.48
2019-05-11T19:53:39.133Z,29.40
2019-05-11T19:55:44.671Z,34.88
2019-05-11T19:57:50.288Z,50.08
2019-05-11T19:59:58.246Z,47.48
2019-05-11T20:02:13.889Z,45.08
2019-05-11T20:04:19.500Z,41.15
2019-05-11T20:06:25.098Z,36.35
2019-05-11T20:08:30.659Z,34.40
2019-05-11T20:10:38.219Z,36.03
2019-05-11T20:12:43.380Z,36.70
2019-05-11T20:14:50.111Z,38.00
2019-05-11T20:16:55.624Z,29.40
2019-05-11T20:19:01.190Z,25.97
2019-05-11T20:21:16.658Z,27.30
2019-05-11T20:23:13.990Z,25.68
2019-05-11T20:25:19.533Z,29.00
2019-05-11T20:27:25.127Z,29.15
2019-05-11T20:29:33.451Z,33.33
2019-05-11T20:31:39.030Z,34.75
2019-05-11T20:33:44.667Z,34.92
2019-05-11T20:35:50.298Z,36.48
2019-05-11T20:37:58.101Z,34.90
2019-05-11T20:40:03.857Z,36.40
2019-05-11T20:42:11.089Z,40.92
2019-05-11T20:44:17.952Z,37.80
2019-05-11T20:46:24.694Z,41.68
2019-05-11T20:48:30.255Z,45.12
2019-05-11T20:50:37.797Z,40.43
2019-05-11T20:52:48.039Z,41.13
2019-05-11T20:54:58.323Z,41.95
2019-05-11T20:57:08.846Z,38.60
2019-05-11T20:59:19.067Z,39.48
2019-05-11T21:01:28.305Z,42.33
2019-05-11T21:03:33.272Z,37.38
2019-05-11T21:05:38.815Z,35.33
2019-05-11T21:07:45.417Z,41.55
2019-05-11T21:09:51.077Z,42.15
2019-05-11T21:11:58.901Z,38.40
2019-05-11T21:14:04.264Z,35.52
2019-05-11T21:16:11.678Z,33.98
2019-05-11T21:18:18.467Z,36.70
2019-05-11T21:20:24.158Z,35.63
2019-05-11T21:22:29.737Z,38.50
2019-05-11T21:24:35.291Z,38.45
2019-05-11T21:26:41.035Z,43.85
2019-05-11T21:28:48.538Z,48.35
2019-05-11T21:30:53.771Z,51.68
2019-05-11T21:32:59.348Z,52.93
2019-05-11T21:35:10.170Z,54.45
2019-05-11T21:37:15.726Z,54.90
2019-05-11T21:39:21.829Z,50.25
2019-05-11T21:41:30.983Z,42.67
2019-05-11T21:43:37.659Z,41.75
2019-05-11T21:45:48.374Z,40.95
2019-05-11T21:47:58.589Z,39.67
2019-05-11T21:50:04.313Z,42.33
2019-05-11T21:52:12.842Z,40.23
2019-05-11T21:54:21.686Z,41.77
2019-05-11T21:56:28.848Z,45.30
2019-05-11T21:58:37.803Z,44.98
2019-05-11T22:00:50.548Z,49.18
2019-05-11T22:02:58.067Z,48.17
2019-05-11T22:05:08.109Z,48.42
2019-05-11T22:07:14.079Z,45.67
2019-05-11T22:09:27.691Z,50.25
2019-05-11T22:11:32.903Z,47.80
2019-05-11T22:13:38.447Z,48.60
2019-05-11T22:15:44.095Z,47.17
2019-05-11T22:17:49.763Z,47.15
2019-05-11T22:19:55.394Z,47.43
2019-05-11T22:22:00.950Z,49.55
2019-05-11T22:24:08.494Z,47.48
2019-05-11T22:26:14.657Z,43.83
2019-05-11T22:28:20.312Z,47.93
2019-05-11T22:30:27.771Z,46.28
2019-05-11T22:32:33.020Z,53.13
2019-05-11T22:34:39.548Z,50.60
2019-05-11T22:36:47.838Z,51.23
2019-05-11T22:38:52.384Z,52.62
2019-05-11T22:40:58.311Z,51.60
2019-05-11T22:43:04.104Z,49.60
2019-05-11T22:45:10.397Z,51.80
2019-05-11T22:47:17.883Z,50.43
2019-05-11T22:49:23.576Z,51.85
2019-05-11T22:51:29.113Z,50.85
2019-05-11T22:53:44.741Z,51.08
2019-05-11T22:55:41.950Z,52.88
2019-05-11T22:57:48.562Z,56.08
2019-05-11T22:59:54.376Z,55.35
2019-05-11T23:01:59.965Z,53.75
2019-05-11T23:04:05.522Z,53.25
2019-05-11T23:06:11.078Z,54.38
2019-05-11T23:08:18.192Z,54.58
2019-05-11T23:10:23.797Z,56.75
2019-05-11T23:12:30.959Z,54.95
2019-05-11T23:14:37.676Z,52.17
2019-05-11T23:16:43.589Z,50.75
2019-05-11T23:18:49.176Z,50.73
2019-05-11T23:20:59.412Z,50.67
2019-05-11T23:23:04.941Z,48.30
2019-05-11T23:25:10.601Z,47.40
2019-05-11T23:27:18.094Z,45.52
2019-05-11T23:29:24.668Z,47.03
2019-05-11T23:31:31.959Z,44.70
2019-05-11T23:33:38.647Z,49.73
2019-05-11T23:35:48.508Z,71.97
2019-05-11T23:37:54.331Z,78.52
2019-05-11T23:40:08.918Z,71.25
2019-05-11T23:42:13.815Z,62.13
2019-05-11T23:44:19.394Z,59.60
2019-05-11T23:46:25.104Z,54.65
2019-05-11T23:48:30.664Z,49.20
2019-05-11T23:50:38.349Z,49.48
2019-05-11T23:52:43.562Z,48.45
2019-05-11T23:54:49.235Z,45.88
2019-05-11T23:56:54.865Z,46.33
2019-05-11T23:59:00.582Z,45.10
